Terminal Aerodrome Forecast
Issued by NWS

Home | Current Version | Previous Version | Text Only | Print | Product List | Glossary On
Versions: 1 2 3 4 5 6 7 8 9 10 11 12 13 14 15 16 17 18 19 20 21 22 23
000
FTUS43 KGRR 020530
TAFJXN
TAF
KJXN 020530Z 0206/0306 19004KT P6SM SCT250
     FM020900 20004KT 4SM BR SCT250
     FM021200 22004KT 2SM BR SCT050
     FM021400 25007KT 4SM HZ BKN035
     FM021600 27009KT P6SM BKN050=

USA.gov is the U.S. government's official web portal to all federal, state and local government web resources and services.